createdAt,value
2022-08-17T00:00:43.028Z,1002.69
2022-08-17T00:01:51.795Z,1002.67
2022-08-17T00:02:32.381Z,1002.67
2022-08-17T00:03:32.331Z,1002.59
2022-08-17T00:04:32.263Z,1002.61
2022-08-17T00:05:32.244Z,1002.62
2022-08-17T00:06:32.242Z,1002.59
2022-08-17T00:07:32.241Z,1002.57
2022-08-17T00:08:32.216Z,1002.58
2022-08-17T00:09:32.322Z,1002.55
2022-08-17T00:10:32.483Z,1002.52
2022-08-17T00:11:32.171Z,1002.56
2022-08-17T00:12:40.552Z,1002.57
2022-08-17T00:13:32.176Z,1002.60
2022-08-17T00:14:32.145Z,1002.56
2022-08-17T00:15:32.117Z,1002.57
2022-08-17T00:16:50.448Z,1002.58
2022-08-17T00:17:32.094Z,1002.59
2022-08-17T00:19:01.911Z,1002.62
2022-08-17T00:19:32.127Z,1002.59
2022-08-17T00:20:35.040Z,1002.60
2022-08-17T00:21:56.067Z,1002.64
2022-08-17T00:22:37.901Z,1002.64
2022-08-17T00:23:32.020Z,1002.61
2022-08-17T00:24:32.003Z,1002.66
2022-08-17T00:25:31.982Z,1002.60
2022-08-17T00:26:34.597Z,1002.58
2022-08-17T00:27:31.962Z,1002.58
2022-08-17T00:28:33.388Z,1002.59
2022-08-17T00:29:31.938Z,1002.58
2022-08-17T00:30:48.462Z,1002.61
2022-08-17T00:31:31.905Z,1002.59
2022-08-17T00:33:12.594Z,1002.55
2022-08-17T00:33:31.883Z,1002.55
2022-08-17T00:34:31.941Z,1002.57
2022-08-17T00:35:31.850Z,1002.57
2022-08-17T00:36:31.839Z,1002.56
2022-08-17T00:37:31.841Z,1002.57
2022-08-17T00:38:31.868Z,1002.56
2022-08-17T00:39:31.921Z,1002.54
2022-08-17T00:40:40.713Z,1002.53
2022-08-17T00:41:31.785Z,1002.51
2022-08-17T00:42:31.776Z,1002.50
2022-08-17T00:43:31.781Z,1002.50
2022-08-17T00:44:31.763Z,1002.49
2022-08-17T00:45:31.767Z,1002.49
2022-08-17T00:46:31.758Z,1002.50
2022-08-17T00:47:31.687Z,1002.50
2022-08-17T00:48:31.705Z,1002.46
2022-08-17T00:49:31.928Z,1002.45
2022-08-17T00:50:31.757Z,1002.47
2022-08-17T00:51:31.645Z,1002.45
2022-08-17T00:52:31.620Z,1002.50
2022-08-17T00:53:31.624Z,1002.48
2022-08-17T00:54:31.664Z,1002.48
2022-08-17T00:55:32.424Z,1002.44
2022-08-17T00:56:31.582Z,1002.41
2022-08-17T00:57:31.571Z,1002.44
2022-08-17T00:58:36.212Z,1002.44
2022-08-17T00:59:31.541Z,1002.37
2022-08-17T01:00:31.957Z,1002.43
2022-08-17T01:01:31.581Z,1002.41
2022-08-17T01:02:40.346Z,1002.39
2022-08-17T01:03:31.521Z,1002.42
2022-08-17T01:04:31.477Z,1002.40
2022-08-17T01:05:31.504Z,1002.38
2022-08-17T01:06:31.526Z,1002.41
2022-08-17T01:07:31.439Z,1002.41
2022-08-17T01:08:31.427Z,1002.44
2022-08-17T01:09:31.416Z,1002.46
2022-08-17T01:10:59.305Z,1002.42
2022-08-17T01:11:31.408Z,1002.43
2022-08-17T01:12:31.390Z,1002.44
2022-08-17T01:13:32.815Z,1002.46
2022-08-17T01:14:31.401Z,1002.39
2022-08-17T01:15:31.318Z,1002.38
2022-08-17T01:16:31.366Z,1002.40
2022-08-17T01:17:31.365Z,1002.40
2022-08-17T01:18:31.288Z,1002.39
2022-08-17T01:19:31.264Z,1002.39
2022-08-17T01:20:31.260Z,1002.39
2022-08-17T01:21:31.241Z,1002.39
2022-08-17T01:22:31.243Z,1002.38
2022-08-17T01:23:31.212Z,1002.40
2022-08-17T01:24:33.772Z,1002.39
2022-08-17T01:25:31.209Z,1002.40
2022-08-17T01:26:31.930Z,1002.47
2022-08-17T01:27:31.160Z,1002.46
2022-08-17T01:28:33.347Z,1002.43
2022-08-17T01:29:31.164Z,1002.44
2022-08-17T01:30:56.614Z,1002.41
2022-08-17T01:31:31.124Z,1002.42
2022-08-17T01:32:31.203Z,1002.43
2022-08-17T01:33:31.078Z,1002.43
2022-08-17T01:34:42.939Z,1002.39
2022-08-17T01:35:31.084Z,1002.40
2022-08-17T01:36:31.055Z,1002.41
2022-08-17T01:37:31.062Z,1002.39
2022-08-17T01:38:32.061Z,1002.46
2022-08-17T01:39:31.121Z,1002.44
2022-08-17T01:40:30.990Z,1002.45
2022-08-17T01:41:30.981Z,1002.45
2022-08-17T01:42:30.960Z,1002.46
2022-08-17T01:43:30.974Z,1002.45
2022-08-17T01:44:31.056Z,1002.44
2022-08-17T01:45:30.930Z,1002.46
2022-08-17T01:46:30.930Z,1002.47
2022-08-17T01:47:31.153Z,1002.45
2022-08-17T01:48:30.874Z,1002.40
2022-08-17T01:49:30.966Z,1002.47
2022-08-17T01:50:31.835Z,1002.43
2022-08-17T01:51:30.853Z,1002.41
2022-08-17T01:52:30.882Z,1002.40
2022-08-17T01:53:30.913Z,1002.39
2022-08-17T01:54:30.796Z,1002.40
2022-08-17T01:55:30.935Z,1002.40
2022-08-17T01:56:30.784Z,1002.41
2022-08-17T01:57:30.755Z,1002.38
2022-08-17T01:58:30.856Z,1002.39
2022-08-17T01:59:30.727Z,1002.38
2022-08-17T02:00:59.332Z,1002.38
2022-08-17T02:01:30.770Z,1002.35
2022-08-17T02:02:31.519Z,1002.32
2022-08-17T02:03:30.675Z,1002.34
2022-08-17T02:04:30.678Z,1002.32
2022-08-17T02:05:30.759Z,1002.35
2022-08-17T02:06:31.627Z,1002.33
2022-08-17T02:07:30.638Z,1002.31
2022-08-17T02:08:36.875Z,1002.34
2022-08-17T02:09:30.619Z,1002.37
2022-08-17T02:10:33.946Z,1002.37
2022-08-17T02:11:30.585Z,1002.33
2022-08-17T02:12:39.054Z,1002.35
2022-08-17T02:13:30.550Z,1002.35
2022-08-17T02:14:30.542Z,1002.38
2022-08-17T02:15:30.527Z,1002.36
2022-08-17T02:16:37.175Z,1002.35
2022-08-17T02:17:30.572Z,1002.39
2022-08-17T02:18:30.525Z,1002.41
2022-08-17T02:19:30.494Z,1002.34
2022-08-17T02:20:42.496Z,1002.35
2022-08-17T02:21:30.492Z,1002.36
2022-08-17T02:22:30.505Z,1002.38
2022-08-17T02:23:31.357Z,1002.33
2022-08-17T02:25:00.619Z,1002.34
2022-08-17T02:25:30.388Z,1002.33
2022-08-17T02:26:30.377Z,1002.36
2022-08-17T02:27:30.353Z,1002.34
2022-08-17T02:28:30.350Z,1002.35
2022-08-17T02:29:30.951Z,1002.34
2022-08-17T02:31:01.583Z,1002.35
2022-08-17T02:31:30.347Z,1002.34
2022-08-17T02:32:30.320Z,1002.38
2022-08-17T02:33:37.278Z,1002.35
2022-08-17T02:34:30.382Z,1002.33
2022-08-17T02:35:30.251Z,1002.31
2022-08-17T02:36:30.255Z,1002.34
2022-08-17T02:37:30.234Z,1002.35
2022-08-17T02:38:30.213Z,1002.38
2022-08-17T02:39:30.277Z,1002.33
2022-08-17T02:40:36.483Z,1002.35
2022-08-17T02:41:30.185Z,1002.35
2022-08-17T02:42:30.190Z,1002.36
2022-08-17T02:43:30.146Z,1002.36
2022-08-17T02:44:39.468Z,-34.65
2022-08-17T02:45:30.130Z,-34.65
2022-08-17T02:46:30.539Z,-34.65
2022-08-17T02:47:30.118Z,-34.65
2022-08-17T02:48:31.651Z,-34.65
2022-08-17T02:49:30.065Z,-34.65
2022-08-17T02:50:30.082Z,-34.65
2022-08-17T02:51:30.057Z,-34.65
2022-08-17T02:52:43.020Z,-34.65
2022-08-17T02:53:35.562Z,-34.65
2022-08-17T02:54:41.538Z,-34.65
2022-08-17T02:55:29.991Z,-34.65
2022-08-17T02:56:29.981Z,-34.65
2022-08-17T02:57:29.964Z,-34.65
2022-08-17T02:58:35.471Z,-34.65
2022-08-17T02:59:29.991Z,-34.65
2022-08-17T03:00:29.946Z,-34.65
2022-08-17T03:01:29.965Z,-34.65
2022-08-17T03:02:29.924Z,-34.65
2022-08-17T03:03:29.895Z,-34.65
2022-08-17T03:04:29.975Z,-34.65
2022-08-17T03:05:29.853Z,-34.65
2022-08-17T03:06:29.883Z,-34.65
2022-08-17T03:07:29.832Z,-34.65
2022-08-17T03:08:29.824Z,-34.65
2022-08-17T03:09:29.806Z,-34.65
2022-08-17T03:10:29.874Z,-34.65
2022-08-17T03:11:29.774Z,-34.65
2022-08-17T03:12:29.771Z,-34.65
2022-08-17T03:13:29.746Z,-34.65
2022-08-17T03:14:29.735Z,-34.65
2022-08-17T03:15:29.715Z,-34.65
2022-08-17T03:16:30.479Z,-34.65
2022-08-17T03:17:30.639Z,-34.65
2022-08-17T03:18:29.690Z,-34.65
2022-08-17T03:19:29.670Z,-34.65
2022-08-17T03:20:29.680Z,-34.65
2022-08-17T03:21:29.656Z,-34.65
2022-08-17T03:22:36.933Z,-34.65
2022-08-17T03:23:30.342Z,-34.65
2022-08-17T03:24:29.615Z,-34.65
2022-08-17T03:25:29.587Z,-34.65
2022-08-17T03:26:29.727Z,-34.65
2022-08-17T03:27:29.565Z,-34.65
2022-08-17T03:28:29.789Z,-34.65
2022-08-17T03:29:29.916Z,-34.65
2022-08-17T03:30:29.537Z,-34.65
2022-08-17T03:31:29.526Z,-34.65
2022-08-17T03:32:29.502Z,-34.65
2022-08-17T03:33:29.510Z,-34.65
2022-08-17T03:34:29.500Z,-34.65
2022-08-17T03:35:29.456Z,-34.65
2022-08-17T03:36:29.465Z,-34.65
2022-08-17T03:37:29.429Z,-34.65
2022-08-17T03:38:29.425Z,-34.65
2022-08-17T03:39:29.478Z,-34.65
2022-08-17T03:40:55.287Z,-34.65
2022-08-17T03:41:29.412Z,-34.65
2022-08-17T03:42:32.168Z,-34.65
2022-08-17T03:43:29.398Z,-34.65
2022-08-17T03:44:29.337Z,-34.65
2022-08-17T03:45:29.334Z,-34.65
2022-08-17T03:46:35.113Z,-34.65
2022-08-17T03:47:29.539Z,-34.65
2022-08-17T03:48:29.310Z,-34.65
2022-08-17T03:49:29.276Z,-34.65
2022-08-17T03:50:29.271Z,-34.65
2022-08-17T03:51:29.260Z,-34.65
2022-08-17T03:52:29.250Z,-34.65
2022-08-17T03:53:29.884Z,-34.65
2022-08-17T03:54:29.205Z,-34.65
2022-08-17T03:55:35.879Z,-34.65
2022-08-17T03:56:29.193Z,-34.65
2022-08-17T03:57:29.181Z,-34.65
2022-08-17T03:58:29.163Z,-34.65
2022-08-17T03:59:29.145Z,-34.65
2022-08-17T04:00:29.180Z,-34.65
2022-08-17T04:01:29.177Z,-34.65
2022-08-17T04:02:29.117Z,-34.65
2022-08-17T04:03:29.128Z,-34.65
2022-08-17T04:04:29.116Z,-34.65
2022-08-17T04:05:29.068Z,-34.65
2022-08-17T04:06:29.984Z,-34.65
2022-08-17T04:07:29.041Z,-34.65
2022-08-17T04:08:29.021Z,-34.65
2022-08-17T04:09:29.017Z,-34.65
2022-08-17T04:10:29.004Z,-34.65
2022-08-17T04:11:29.076Z,-34.65
2022-08-17T04:12:28.993Z,-34.65
2022-08-17T04:13:29.006Z,-34.65
2022-08-17T04:14:29.017Z,-34.65
2022-08-17T04:15:28.945Z,-34.65
2022-08-17T04:16:28.917Z,-34.65
2022-08-17T04:17:29.896Z,-34.65
2022-08-17T04:18:28.915Z,-34.65
2022-08-17T04:19:28.887Z,-34.65
2022-08-17T04:20:28.877Z,-34.65
2022-08-17T04:21:28.859Z,-34.65
2022-08-17T04:22:31.729Z,-34.65
2022-08-17T04:23:28.839Z,-34.65
2022-08-17T04:24:28.851Z,-34.65
2022-08-17T04:25:28.813Z,-34.65
2022-08-17T04:26:52.925Z,-34.65
2022-08-17T04:27:28.789Z,-34.65
2022-08-17T04:28:28.759Z,-34.65
2022-08-17T04:29:28.838Z,-34.65
2022-08-17T04:30:28.743Z,-34.65
2022-08-17T04:31:28.727Z,-34.65
2022-08-17T04:33:03.670Z,-34.65
2022-08-17T04:33:28.710Z,-34.65
2022-08-17T04:34:28.725Z,-34.65
2022-08-17T04:35:28.729Z,-34.65
2022-08-17T04:36:28.667Z,-34.65
2022-08-17T04:37:28.664Z,-34.65
2022-08-17T04:38:28.633Z,-34.65
2022-08-17T04:39:28.676Z,-34.65
2022-08-17T04:40:28.641Z,-34.65
2022-08-17T04:41:28.610Z,-34.65
2022-08-17T04:42:28.617Z,-34.65
2022-08-17T04:43:28.616Z,-34.65
2022-08-17T04:44:36.872Z,-34.65
2022-08-17T04:45:31.963Z,-34.65
2022-08-17T04:46:28.545Z,-34.65
2022-08-17T04:47:28.634Z,-34.65
2022-08-17T04:48:36.338Z,-34.65
2022-08-17T04:49:28.535Z,-34.65
2022-08-17T04:50:28.522Z,-34.65
2022-08-17T04:51:28.460Z,-34.65
2022-08-17T04:52:32.196Z,-34.65
2022-08-17T04:53:28.458Z,-34.65
2022-08-17T04:54:28.427Z,-34.65
2022-08-17T04:55:28.454Z,-34.65
2022-08-17T04:56:28.393Z,-34.65
2022-08-17T04:57:28.389Z,-34.65
2022-08-17T04:58:28.400Z,-34.65
2022-08-17T04:59:28.371Z,-34.65
2022-08-17T05:00:28.341Z,-34.65
2022-08-17T05:01:28.409Z,-34.65
2022-08-17T05:02:28.317Z,-34.65
2022-08-17T05:03:28.310Z,-34.65
2022-08-17T05:04:34.049Z,-34.65
2022-08-17T05:05:28.292Z,-34.65
2022-08-17T05:06:28.274Z,-34.65
2022-08-17T05:07:31.386Z,-34.65
2022-08-17T05:08:28.238Z,-34.65
2022-08-17T05:09:28.226Z,-34.65
2022-08-17T05:10:28.210Z,-34.65
2022-08-17T05:11:28.247Z,-34.65
2022-08-17T05:12:28.185Z,-34.65
2022-08-17T05:13:28.185Z,-34.65
2022-08-17T05:14:33.062Z,-34.65
2022-08-17T05:15:28.154Z,-34.65
2022-08-17T05:16:28.135Z,-34.65
2022-08-17T05:17:28.134Z,-34.65
2022-08-17T05:18:28.126Z,-34.65
2022-08-17T05:19:28.122Z,-34.65
2022-08-17T05:20:28.080Z,-34.65
2022-08-17T05:21:28.078Z,-34.65
2022-08-17T05:22:28.093Z,-34.65
2022-08-17T05:23:41.690Z,-34.65
2022-08-17T05:24:38.987Z,-34.65
2022-08-17T05:25:28.029Z,-34.65
2022-08-17T05:26:28.755Z,-34.65
2022-08-17T05:27:32.915Z,-34.65
2022-08-17T05:28:28.139Z,-34.65
2022-08-17T05:29:33.747Z,-34.65
2022-08-17T05:30:27.975Z,-34.65
2022-08-17T05:31:28.085Z,-34.65
2022-08-17T05:32:38.256Z,-34.65
2022-08-17T05:33:27.927Z,-34.65
2022-08-17T05:34:27.897Z,-34.65
2022-08-17T05:35:27.894Z,-34.65
2022-08-17T05:36:38.097Z,-34.65
2022-08-17T05:37:27.876Z,-34.65
2022-08-17T05:38:27.852Z,-34.65
2022-08-17T05:39:28.198Z,-34.65
2022-08-17T05:40:27.817Z,-34.65
2022-08-17T05:41:27.816Z,-34.65
2022-08-17T05:42:27.792Z,-34.65
2022-08-17T05:43:27.786Z,-34.65
2022-08-17T05:44:27.766Z,-34.65
2022-08-17T05:45:54.344Z,-34.65
2022-08-17T05:46:27.750Z,-34.65
2022-08-17T05:47:27.733Z,-34.65
2022-08-17T05:48:35.522Z,-34.65
2022-08-17T05:49:27.712Z,-34.65
2022-08-17T05:50:29.937Z,-34.65
2022-08-17T05:51:27.701Z,-34.65
2022-08-17T05:52:27.665Z,-34.65
2022-08-17T05:53:27.655Z,-34.65
2022-08-17T05:54:27.643Z,-34.65
2022-08-17T05:55:27.638Z,-34.65
2022-08-17T05:56:30.387Z,-34.65
2022-08-17T05:57:27.618Z,-34.65
2022-08-17T05:58:27.617Z,-34.65
2022-08-17T05:59:27.578Z,-34.65
2022-08-17T06:00:30.556Z,-34.65
2022-08-17T06:01:27.633Z,-34.65
2022-08-17T06:02:27.528Z,-34.65
2022-08-17T06:03:27.583Z,-34.65
2022-08-17T06:04:27.508Z,-34.65
2022-08-17T06:05:27.520Z,-34.65
2022-08-17T06:06:31.477Z,-34.65
2022-08-17T06:07:27.476Z,-34.65
2022-08-17T06:08:27.460Z,-34.65
2022-08-17T06:09:32.982Z,-34.65
2022-08-17T06:10:27.454Z,-34.65
2022-08-17T06:11:27.443Z,-34.65
2022-08-17T06:12:27.411Z,-34.65
2022-08-17T06:13:27.400Z,-34.65
2022-08-17T06:14:27.386Z,-34.65
2022-08-17T06:15:27.379Z,-34.65
2022-08-17T06:16:34.075Z,-34.65
2022-08-17T06:17:27.350Z,-34.65
2022-08-17T06:18:27.345Z,-34.65
2022-08-17T06:19:27.331Z,-34.65
2022-08-17T06:20:27.296Z,-34.65
2022-08-17T06:21:30.544Z,-34.65
2022-08-17T06:22:27.279Z,-34.65
2022-08-17T06:23:27.264Z,-34.65
2022-08-17T06:24:27.260Z,-34.65
2022-08-17T06:25:27.244Z,-34.65
2022-08-17T06:26:38.283Z,-34.65
2022-08-17T06:27:27.224Z,-34.65
2022-08-17T06:28:27.191Z,-34.65
2022-08-17T06:29:27.212Z,-34.65
2022-08-17T06:30:27.343Z,-34.65
2022-08-17T06:31:27.168Z,-34.65
2022-08-17T06:32:27.144Z,-34.62
2022-08-17T06:33:27.151Z,-34.65
2022-08-17T06:34:27.152Z,-34.65
2022-08-17T06:35:31.951Z,-34.65
2022-08-17T06:36:27.098Z,-34.65
2022-08-17T06:37:27.084Z,-34.65
2022-08-17T06:38:37.795Z,-34.65
2022-08-17T06:39:27.266Z,-34.65
2022-08-17T06:40:27.085Z,-34.65
2022-08-17T06:41:27.039Z,-34.65
2022-08-17T06:43:02.549Z,-34.65
2022-08-17T06:43:27.149Z,-34.65
2022-08-17T06:44:43.682Z,-34.65
2022-08-17T06:45:26.983Z,-34.65
2022-08-17T06:46:27.012Z,-34.65
2022-08-17T06:47:28.391Z,-34.65
2022-08-17T06:48:26.934Z,-34.65
2022-08-17T06:49:27.018Z,-34.65
2022-08-17T06:50:27.127Z,-34.65
2022-08-17T06:51:27.104Z,-34.65
2022-08-17T06:52:43.386Z,-34.65
2022-08-17T06:53:26.883Z,-34.65
2022-08-17T06:54:26.867Z,-34.65
2022-08-17T06:55:26.853Z,-34.65
2022-08-17T06:56:27.011Z,-34.65
2022-08-17T06:57:26.821Z,-34.65
2022-08-17T06:58:29.585Z,-34.65
2022-08-17T06:59:53.189Z,-34.65
2022-08-17T07:00:26.929Z,-34.65
2022-08-17T07:01:26.888Z,-34.65
2022-08-17T07:02:29.098Z,-34.65
2022-08-17T07:03:26.797Z,-34.65
2022-08-17T07:04:26.724Z,-34.65
2022-08-17T07:05:29.567Z,-34.65
2022-08-17T07:06:26.701Z,-34.65
2022-08-17T07:07:26.684Z,-34.65
2022-08-17T07:08:30.571Z,-34.65
2022-08-17T07:09:26.686Z,-34.65
2022-08-17T07:10:26.710Z,-34.65
2022-08-17T07:11:26.629Z,-34.65
2022-08-17T07:12:26.900Z,-34.65
2022-08-17T07:13:26.622Z,-34.65
2022-08-17T07:14:26.666Z,-34.65
2022-08-17T07:15:26.581Z,-34.65
2022-08-17T07:16:26.570Z,-34.65
2022-08-17T07:17:46.867Z,-34.65
2022-08-17T07:18:26.544Z,-34.65
2022-08-17T07:19:26.529Z,-34.65
2022-08-17T07:20:26.516Z,-34.65
2022-08-17T07:21:26.878Z,-34.65
2022-08-17T07:22:26.552Z,-34.65
2022-08-17T07:23:26.475Z,-34.65
2022-08-17T07:24:30.106Z,-34.65
2022-08-17T07:25:26.515Z,-34.65
2022-08-17T07:26:26.760Z,-34.65
2022-08-17T07:27:26.440Z,-34.65
2022-08-17T07:28:26.439Z,-34.65
2022-08-17T07:29:26.395Z,-34.65
2022-08-17T07:30:26.396Z,-34.65
2022-08-17T07:31:26.381Z,-34.65
2022-08-17T07:32:26.377Z,-34.65
2022-08-17T07:33:26.394Z,-34.65
2022-08-17T07:34:26.322Z,-34.65
2022-08-17T07:35:37.651Z,-34.65
2022-08-17T07:36:29.800Z,-34.65
2022-08-17T07:37:26.297Z,-34.65
2022-08-17T07:38:27.103Z,-34.65
2022-08-17T07:39:26.327Z,-34.65
2022-08-17T07:40:26.431Z,-34.65
2022-08-17T07:41:26.253Z,-34.65
2022-08-17T07:42:26.268Z,-34.65
2022-08-17T07:43:26.256Z,-34.65
2022-08-17T07:44:26.190Z,-34.65
2022-08-17T07:45:26.227Z,-34.65
2022-08-17T07:46:26.206Z,-34.65
2022-08-17T07:47:26.171Z,-34.65
2022-08-17T07:48:26.149Z,-34.65
2022-08-17T07:49:26.136Z,-34.65
2022-08-17T07:50:26.307Z,-34.65
2022-08-17T07:51:26.175Z,-34.65
2022-08-17T07:52:51.126Z,-34.65
2022-08-17T07:53:26.104Z,-34.65
2022-08-17T07:54:26.065Z,-34.65
2022-08-17T07:55:26.085Z,-34.65
2022-08-17T07:56:26.037Z,-34.65
2022-08-17T07:57:29.891Z,-34.65
2022-08-17T07:58:27.081Z,-34.65
2022-08-17T07:59:33.219Z,-34.65
2022-08-17T08:00:31.479Z,-34.65
2022-08-17T08:01:26.099Z,-34.65
2022-08-17T08:02:31.979Z,-34.65
2022-08-17T08:03:26.161Z,-34.65
2022-08-17T08:04:58.941Z,-34.65
2022-08-17T08:05:48.826Z,-34.65
2022-08-17T08:06:25.956Z,-34.65
2022-08-17T08:07:26.725Z,-34.65
2022-08-17T08:08:25.885Z,-34.65
2022-08-17T08:09:25.954Z,-34.65
2022-08-17T08:10:25.903Z,-34.65
2022-08-17T08:11:25.866Z,-34.65
2022-08-17T08:12:25.999Z,-34.65
2022-08-17T08:13:25.870Z,-34.65
2022-08-17T08:14:28.270Z,-34.65
2022-08-17T08:15:25.866Z,-34.65
2022-08-17T08:16:25.963Z,-34.65
2022-08-17T08:17:25.783Z,-34.65
2022-08-17T08:18:39.734Z,-34.65
2022-08-17T08:19:25.747Z,-34.65
2022-08-17T08:20:52.348Z,-34.65
2022-08-17T08:21:25.737Z,-34.65
2022-08-17T08:22:25.766Z,-34.65
2022-08-17T08:23:25.693Z,-34.65
2022-08-17T08:24:25.674Z,-34.65
2022-08-17T08:25:28.865Z,-34.65
2022-08-17T08:26:25.657Z,-34.65
2022-08-17T08:27:25.636Z,-34.65
2022-08-17T08:28:25.617Z,-34.65
2022-08-17T08:29:25.648Z,-34.65
2022-08-17T08:30:25.630Z,-34.65
2022-08-17T08:31:25.647Z,-34.65
2022-08-17T08:32:25.571Z,-34.65
2022-08-17T08:33:25.552Z,-34.65
2022-08-17T08:34:58.907Z,-34.65
2022-08-17T08:35:25.583Z,-34.65
2022-08-17T08:37:15.934Z,-34.65
2022-08-17T08:37:33.914Z,-34.65
2022-08-17T08:38:26.779Z,-34.65
2022-08-17T08:39:25.721Z,-34.65
2022-08-17T08:40:25.479Z,-34.65
2022-08-17T08:41:25.508Z,-34.65
2022-08-17T08:42:25.458Z,-34.65
2022-08-17T08:43:25.442Z,-34.65
2022-08-17T08:45:00.998Z,-34.65
2022-08-17T08:45:25.417Z,-34.65
2022-08-17T08:46:25.411Z,-34.65
2022-08-17T08:47:25.368Z,-34.65
2022-08-17T08:48:46.302Z,-34.65
2022-08-17T08:49:39.266Z,-34.65
2022-08-17T08:50:37.167Z,-34.65
2022-08-17T08:51:25.560Z,-34.65
2022-08-17T08:52:25.305Z,-34.65
2022-08-17T08:53:25.324Z,-34.65
2022-08-17T08:54:26.729Z,-34.65
2022-08-17T08:55:25.269Z,-34.65
2022-08-17T08:56:26.191Z,-34.65
2022-08-17T08:57:30.975Z,-34.65
2022-08-17T08:58:31.632Z,-34.65
2022-08-17T08:59:25.217Z,-34.65
2022-08-17T09:00:25.205Z,-34.65
2022-08-17T09:01:25.291Z,-34.65
2022-08-17T09:02:25.311Z,-34.65
2022-08-17T09:03:43.804Z,-34.65
2022-08-17T09:04:25.940Z,-34.65
2022-08-17T09:05:25.181Z,-34.65
2022-08-17T09:06:33.496Z,-34.65
2022-08-17T09:07:25.139Z,-34.65
2022-08-17T09:08:25.155Z,-34.65
2022-08-17T09:09:25.197Z,-34.65
2022-08-17T09:10:25.064Z,-34.65
2022-08-17T09:11:25.099Z,-34.65
2022-08-17T09:12:25.098Z,-34.65
2022-08-17T09:13:25.070Z,-34.65
2022-08-17T09:14:28.833Z,-34.65
2022-08-17T09:15:25.029Z,-34.65
2022-08-17T09:16:24.991Z,-34.65
2022-08-17T09:17:24.981Z,-34.65
2022-08-17T09:19:02.550Z,-34.65
2022-08-17T09:19:24.972Z,-34.65
2022-08-17T09:20:28.182Z,-34.65
2022-08-17T09:21:24.953Z,-34.65
2022-08-17T09:22:24.908Z,-34.65
2022-08-17T09:23:24.898Z,-34.65
2022-08-17T09:24:24.904Z,-34.65
2022-08-17T09:25:24.936Z,-34.65
2022-08-17T09:26:24.873Z,-34.65
2022-08-17T09:27:24.879Z,-34.65
2022-08-17T09:28:24.878Z,-34.65
2022-08-17T09:29:24.830Z,-34.65
2022-08-17T09:30:24.814Z,-34.65
2022-08-17T09:31:26.038Z,-34.65
2022-08-17T09:32:24.812Z,-34.65
2022-08-17T09:33:24.820Z,-34.65
2022-08-17T09:34:28.197Z,-34.65
2022-08-17T09:35:24.787Z,-34.65
2022-08-17T09:36:24.759Z,-34.65
2022-08-17T09:37:24.726Z,-34.65
2022-08-17T09:38:28.027Z,-34.65
2022-08-17T09:39:24.781Z,-34.65
2022-08-17T09:40:24.727Z,-34.65
2022-08-17T09:41:24.675Z,-34.65
2022-08-17T09:42:24.665Z,-34.65
2022-08-17T09:43:24.680Z,-34.65
2022-08-17T09:44:24.631Z,-34.65
2022-08-17T09:45:24.641Z,-34.65
2022-08-17T09:46:24.621Z,-34.65
2022-08-17T09:47:24.583Z,-34.65
2022-08-17T09:48:24.607Z,-34.65
2022-08-17T09:49:25.361Z,-34.65
2022-08-17T09:50:55.263Z,-34.65
2022-08-17T09:51:24.554Z,-34.65
2022-08-17T09:52:24.581Z,-34.65
2022-08-17T09:53:24.507Z,-34.65
2022-08-17T09:54:38.461Z,-34.65
2022-08-17T09:55:25.501Z,-34.65
2022-08-17T09:56:24.493Z,-34.65
2022-08-17T09:57:30.317Z,-34.65
2022-08-17T09:58:29.028Z,-34.65
2022-08-17T09:59:24.484Z,-34.65
2022-08-17T10:00:24.444Z,-34.65
2022-08-17T10:01:24.471Z,-34.65
2022-08-17T10:02:24.426Z,-34.65
2022-08-17T10:03:24.403Z,-34.65
2022-08-17T10:04:29.310Z,-34.65
2022-08-17T10:05:24.432Z,-34.65
2022-08-17T10:06:24.341Z,-34.65
2022-08-17T10:07:24.312Z,-34.65
2022-08-17T10:08:25.241Z,-34.65
2022-08-17T10:09:24.346Z,-34.65
2022-08-17T10:10:24.298Z,-34.65
2022-08-17T10:11:33.485Z,-34.65
2022-08-17T10:12:29.906Z,-34.65
2022-08-17T10:13:24.311Z,-34.65
2022-08-17T10:14:36.768Z,-34.65
2022-08-17T10:15:24.250Z,-34.65
2022-08-17T10:16:24.234Z,-34.65
2022-08-17T10:17:24.214Z,-34.65
2022-08-17T10:18:24.190Z,-34.65
2022-08-17T10:19:24.182Z,-34.65
2022-08-17T10:20:24.231Z,-34.65
2022-08-17T10:21:24.146Z,-34.65
2022-08-17T10:22:35.137Z,-34.65
2022-08-17T10:23:24.279Z,-34.65
2022-08-17T10:24:24.157Z,-34.65
2022-08-17T10:25:27.854Z,-34.65
2022-08-17T10:26:24.105Z,-34.65
2022-08-17T10:27:24.077Z,-34.65
2022-08-17T10:28:28.834Z,-34.65
2022-08-17T10:29:24.075Z,-34.65
2022-08-17T10:30:24.049Z,-34.65
2022-08-17T10:31:34.807Z,-34.65
2022-08-17T10:32:24.001Z,-34.65
2022-08-17T10:33:24.002Z,-34.65
2022-08-17T10:34:24.027Z,-34.65
2022-08-17T10:35:23.952Z,-34.65
2022-08-17T10:36:23.957Z,-34.65
2022-08-17T10:37:23.979Z,-34.65
2022-08-17T10:38:24.592Z,-34.65
2022-08-17T10:39:23.927Z,-34.65
2022-08-17T10:40:23.911Z,-34.65
2022-08-17T10:41:23.889Z,-34.65
2022-08-17T10:42:30.768Z,-34.65
2022-08-17T10:43:23.846Z,-34.65
2022-08-17T10:44:39.578Z,-34.65
2022-08-17T10:45:23.832Z,-34.65
2022-08-17T10:46:31.035Z,-34.65
2022-08-17T10:47:23.849Z,-34.65
2022-08-17T10:48:23.786Z,-34.65
2022-08-17T10:49:23.795Z,-34.65
2022-08-17T10:50:23.797Z,-34.65
2022-08-17T10:51:23.834Z,-34.65
2022-08-17T10:52:24.952Z,-34.65
2022-08-17T10:53:23.724Z,-34.65
2022-08-17T10:54:23.752Z,-34.65
2022-08-17T10:55:23.704Z,-34.65
2022-08-17T10:56:23.739Z,-34.65
2022-08-17T10:57:23.739Z,-34.65
2022-08-17T10:58:23.656Z,-34.65
2022-08-17T10:59:23.634Z,-34.65
2022-08-17T11:00:27.503Z,-34.65
2022-08-17T11:01:23.757Z,-34.65
2022-08-17T11:02:23.619Z,-34.65
2022-08-17T11:03:23.583Z,-34.65
2022-08-17T11:04:23.610Z,-34.65
2022-08-17T11:05:23.602Z,-34.65
2022-08-17T11:06:23.553Z,-34.65
2022-08-17T11:07:23.556Z,-34.65
2022-08-17T11:08:23.593Z,-34.65
2022-08-17T11:09:23.543Z,-34.65
2022-08-17T11:10:23.567Z,-34.65
2022-08-17T11:11:23.489Z,-34.65
2022-08-17T11:12:23.517Z,-34.65
2022-08-17T11:13:23.507Z,-34.65
2022-08-17T11:14:23.454Z,-34.65
2022-08-17T11:15:23.623Z,-34.65
2022-08-17T11:16:23.457Z,-34.65
2022-08-17T11:17:23.396Z,-34.65
2022-08-17T11:18:23.407Z,-34.65
2022-08-17T11:19:23.445Z,-34.65
2022-08-17T11:20:23.400Z,-34.65
2022-08-17T11:21:23.344Z,-34.65
2022-08-17T11:22:23.342Z,-34.65
2022-08-17T11:23:23.326Z,-34.65
2022-08-17T11:24:23.320Z,-34.65
2022-08-17T11:25:23.351Z,-34.65
2022-08-17T11:26:24.105Z,-34.65
2022-08-17T11:27:23.342Z,-34.65
2022-08-17T11:28:23.263Z,-34.65
2022-08-17T11:29:24.846Z,-34.65
2022-08-17T11:30:23.239Z,-34.65
2022-08-17T11:31:23.287Z,-34.65
2022-08-17T11:32:23.225Z,-34.65
2022-08-17T11:33:23.294Z,-34.65
2022-08-17T11:34:23.192Z,-34.65
2022-08-17T11:35:23.165Z,-34.65
2022-08-17T11:36:23.165Z,-34.65
2022-08-17T11:37:23.133Z,-34.65
2022-08-17T11:38:23.158Z,-34.65
2022-08-17T11:39:24.882Z,-34.65
2022-08-17T11:40:23.133Z,-34.65
2022-08-17T11:41:23.084Z,-34.65
2022-08-17T11:42:23.077Z,-34.65
2022-08-17T11:43:25.423Z,-34.65
2022-08-17T11:44:23.315Z,-34.65
2022-08-17T11:45:32.479Z,-34.65
2022-08-17T11:46:23.418Z,-34.65
2022-08-17T11:47:23.015Z,-34.65
2022-08-17T11:48:28.333Z,-34.65
2022-08-17T11:49:23.068Z,-34.65
2022-08-17T11:50:27.884Z,-34.65
2022-08-17T11:51:22.983Z,-34.65
2022-08-17T11:52:22.954Z,-34.65
2022-08-17T11:53:22.954Z,-34.65
2022-08-17T11:54:32.891Z,-34.65
2022-08-17T11:55:35.105Z,-34.65
2022-08-17T11:56:22.967Z,-34.65
2022-08-17T11:57:22.890Z,-34.65
2022-08-17T11:58:22.868Z,-34.65
2022-08-17T11:59:22.861Z,-34.65
2022-08-17T12:00:23.038Z,-34.65
2022-08-17T12:01:22.822Z,-34.65
2022-08-17T12:02:22.917Z,-34.65
2022-08-17T12:03:22.838Z,-34.65
2022-08-17T12:04:22.895Z,-34.65
2022-08-17T12:05:22.761Z,-34.65
2022-08-17T12:06:22.813Z,-34.65
2022-08-17T12:07:22.753Z,-34.65
2022-08-17T12:08:22.726Z,-34.65
2022-08-17T12:09:22.717Z,-34.65
2022-08-17T12:10:25.699Z,-34.65
2022-08-17T12:11:58.698Z,-34.65
2022-08-17T12:12:22.730Z,-34.65
2022-08-17T12:13:22.671Z,-34.65
2022-08-17T12:14:35.690Z,-34.65
2022-08-17T12:15:22.677Z,-34.65
2022-08-17T12:16:22.615Z,-34.65
2022-08-17T12:17:40.118Z,-34.65
2022-08-17T12:18:22.591Z,-34.65
2022-08-17T12:19:22.582Z,-34.65
2022-08-17T12:20:22.597Z,-34.65
2022-08-17T12:21:22.601Z,-34.65
2022-08-17T12:22:23.290Z,-34.65
2022-08-17T12:23:22.527Z,-34.65